Time;durP1;ratioP1;P1;durP2;ratioP2;P2;SDS_P1;SDS_P2;PMS_P1;PMS_P2;Temp;Humidity;BMP_temperature;BMP_pressure;BME280_temperature;BME280_humidity;BME280_pressure;Samples;Min_cycle;Max_cycle;Signal;HPM_P1;HPM_P2
2022/11/28 00:01:32;;;;;;;4.40;4.00;;;2.90;99.90;;;;;;5046363;28;20250;-75
2022/11/28 00:04:01;;;;;;;4.03;3.72;;;2.90;99.90;;;;;;5046468;28;20195;-77
2022/11/28 00:06:29;;;;;;;3.65;3.35;;;2.90;99.90;;;;;;5047764;28;20234;-79
2022/11/28 00:08:58;;;;;;;4.07;3.78;;;2.90;99.90;;;;;;5049624;28;20191;-77
2022/11/28 00:11:25;;;;;;;3.92;3.63;;;2.90;99.90;;;;;;5042885;28;20310;-76
2022/11/28 00:13:54;;;;;;;4.30;4.00;;;2.90;99.90;;;;;;5048504;28;20226;-75
2022/11/28 00:16:23;;;;;;;3.40;3.17;;;2.90;99.90;;;;;;5044590;28;20223;-76
2022/11/28 00:18:51;;;;;;;4.13;3.80;;;2.90;99.90;;;;;;5043241;28;20639;-75
2022/11/28 00:21:21;;;;;;;4.20;3.90;;;2.90;99.90;;;;;;5044879;28;20272;-78
2022/11/28 00:23:48;;;;;;;3.70;3.40;;;2.80;99.90;;;;;;5043682;28;20195;-76
2022/11/28 00:26:18;;;;;;;4.32;4.03;;;2.90;99.90;;;;;;5047983;28;20214;-76
2022/11/28 00:28:46;;;;;;;4.15;3.85;;;2.80;99.90;;;;;;5045767;28;20199;-76
2022/11/28 00:31:14;;;;;;;3.85;3.63;;;2.90;99.90;;;;;;5044712;28;20237;-76
2022/11/28 00:33:42;;;;;;;4.28;3.88;;;2.80;99.90;;;;;;5047103;28;20286;-80
2022/11/28 00:36:10;;;;;;;3.67;3.38;;;2.80;99.90;;;;;;5048898;28;20226;-79
2022/11/28 00:38:39;;;;;;;5.20;4.25;;;2.80;99.90;;;;;;5045870;28;20203;-80
2022/11/28 00:41:10;;;;;;;4.38;3.97;;;2.80;99.90;;;;;;5048014;28;20223;-80
2022/11/28 00:43:37;;;;;;;4.60;4.13;;;2.80;99.90;;;;;;5047860;28;20684;-80
2022/11/28 00:46:06;;;;;;;3.42;3.20;;;2.80;99.90;;;;;;5047696;28;20222;-78
2022/11/28 00:48:35;;;;;;;4.25;3.85;;;2.80;99.90;;;;;;5048618;28;20194;-78
2022/11/28 00:51:07;;;;;;;4.35;3.95;;;2.80;99.90;;;;;;5045877;28;20226;-82
2022/11/28 00:53:34;;;;;;;4.20;3.90;;;2.80;99.90;;;;;;5045178;28;20206;-80
2022/11/28 00:56:04;;;;;;;4.50;4.13;;;2.90;99.90;;;;;;5043482;28;20292;-78
2022/11/28 00:58:32;;;;;;;3.95;3.75;;;2.90;99.90;;;;;;5046944;28;20195;-76
2022/11/28 01:01:00;;;;;;;3.67;3.47;;;2.90;99.90;;;;;;5045140;28;20247;-76
2022/11/28 01:03:27;;;;;;;4.07;3.78;;;2.90;99.90;;;;;;5043927;28;20199;-80
2022/11/28 01:05:55;;;;;;;4.00;3.70;;;2.90;99.90;;;;;;5044667;28;20219;-78
2022/11/28 01:08:22;;;;;;;3.58;3.28;;;2.90;99.90;;;;;;5044329;28;20207;-75
2022/11/28 01:10:50;;;;;;;3.92;3.72;;;2.90;99.90;;;;;;5043424;28;20711;-81
2022/11/28 01:13:19;;;;;;;4.22;3.92;;;2.90;99.90;;;;;;5043541;28;20609;-77
2022/11/28 01:15:46;;;;;;;3.80;3.60;;;2.90;99.90;;;;;;5047250;28;20211;-78
2022/11/28 01:18:13;;;;;;;4.15;3.85;;;2.80;99.90;;;;;;5045528;28;20200;-77
2022/11/28 01:20:41;;;;;;;3.45;3.25;;;2.80;99.90;;;;;;5045661;28;20918;-77
2022/11/28 01:23:09;;;;;;;3.47;3.20;;;2.90;99.90;;;;;;5047069;28;20203;-77
2022/11/28 01:25:36;;;;;;;3.90;3.60;;;2.90;99.90;;;;;;5047034;28;20691;-77
2022/11/28 01:28:04;;;;;;;7.45;4.28;;;2.90;99.90;;;;;;5048368;28;20199;-82
2022/11/28 01:30:34;;;;;;;3.75;3.45;;;2.90;99.90;;;;;;5048509;28;20555;-78
2022/11/28 01:33:01;;;;;;;4.30;4.00;;;3.00;99.90;;;;;;5051374;28;20542;-82
2022/11/28 01:35:29;;;;;;;4.00;3.70;;;2.90;99.90;;;;;;5048540;28;20214;-77
2022/11/28 01:37:57;;;;;;;3.83;3.63;;;2.90;99.90;;;;;;5048471;28;20211;-81
2022/11/28 01:40:25;;;;;;;10.15;3.72;;;2.90;99.90;;;;;;5050620;28;20219;-78
2022/11/28 01:42:53;;;;;;;2.85;2.65;;;2.90;99.90;;;;;;5051698;28;20359;-77
2022/11/28 01:45:24;;;;;;;3.97;3.67;;;2.90;99.90;;;;;;5050923;28;20199;-78
2022/11/28 01:47:55;;;;;;;3.65;3.45;;;2.90;99.90;;;;;;5050725;28;20229;-75
2022/11/28 01:50:24;;;;;;;4.20;3.92;;;3.00;99.90;;;;;;5049056;28;20222;-77
2022/11/28 01:52:57;;;;;;;4.25;3.88;;;3.00;99.90;;;;;;5047663;28;20220;-76
2022/11/28 01:55:27;;;;;;;4.00;3.70;;;3.00;99.90;;;;;;5046859;28;20202;-75
2022/11/28 01:57:56;;;;;;;3.92;3.60;;;3.00;99.90;;;;;;5049837;28;20218;-77
2022/11/28 02:00:24;;;;;;;4.03;3.75;;;3.00;99.90;;;;;;5049088;28;20222;-77
2022/11/28 02:03:00;;;;;;;4.00;3.75;;;3.00;99.90;;;;;;5048054;28;20215;-81
2022/11/28 02:05:28;;;;;;;4.40;4.00;;;2.90;99.90;;;;;;5047682;28;20201;-76
2022/11/28 02:07:56;;;;;;;3.78;3.47;;;2.90;99.90;;;;;;5051000;28;20210;-76
2022/11/28 02:10:27;;;;;;;4.10;3.80;;;2.90;99.90;;;;;;5048081;28;20228;-77
2022/11/28 02:13:06;;;;;;;3.85;3.55;;;3.00;99.90;;;;;;5048194;28;20314;-76
2022/11/28 02:16:01;;;;;;;3.63;3.42;;;3.00;99.90;;;;;;5045148;28;20206;-75
2022/11/28 02:18:47;;;;;;;3.80;3.50;;;3.00;99.90;;;;;;5050562;28;20682;-76
2022/11/28 02:21:30;;;;;;;3.40;3.20;;;3.10;99.90;;;;;;5042639;28;20227;-75
2022/11/28 02:24:26;;;;;;;3.60;3.40;;;3.00;99.90;;;;;;5047833;28;20253;-75
2022/11/28 02:27:09;;;;;;;3.60;3.40;;;3.00;99.90;;;;;;5043676;28;20235;-77
2022/11/28 02:30:03;;;;;;;3.63;3.42;;;3.10;99.90;;;;;;5047916;28;20287;-76
2022/11/28 02:32:52;;;;;;;4.00;3.70;;;3.10;99.90;;;;;;5038138;28;20210;-75
2022/11/28 02:35:23;;;;;;;4.10;3.83;;;3.00;99.90;;;;;;5044735;28;20203;-76
2022/11/28 02:38:03;;;;;;;3.47;3.17;;;3.00;99.90;;;;;;5048477;28;20238;-79
2022/11/28 02:40:39;;;;;;;3.70;3.50;;;3.10;99.90;;;;;;5046460;28;20713;-78
2022/11/28 02:43:15;;;;;;;4.07;3.78;;;3.10;99.90;;;;;;5050100;28;20252;-77
2022/11/28 02:45:57;;;;;;;3.58;3.28;;;3.10;99.90;;;;;;5044295;28;20295;-79
2022/11/28 02:48:32;;;;;;;3.72;3.42;;;3.10;99.90;;;;;;5047563;28;20203;-81
2022/11/28 02:51:04;;;;;;;3.92;3.67;;;3.00;99.90;;;;;;5045729;28;20587;-80
2022/11/28 02:53:33;;;;;;;3.92;3.70;;;3.00;99.90;;;;;;5051283;28;20203;-75
2022/11/28 02:56:02;;;;;;;3.88;3.58;;;3.00;99.90;;;;;;5047783;28;20215;-80
2022/11/28 02:58:30;;;;;;;4.45;4.15;;;3.00;99.90;;;;;;5049180;28;20770;-76
2022/11/28 03:00:58;;;;;;;3.83;3.55;;;3.00;99.90;;;;;;5048379;28;20582;-78
2022/11/28 03:03:57;;;;;;;4.30;3.90;;;3.00;99.90;;;;;;5048819;28;20206;-80
2022/11/28 03:06:37;;;;;;;3.63;3.33;;;2.90;99.90;;;;;;5043509;28;20219;-78
2022/11/28 03:09:21;;;;;;;3.60;3.40;;;2.90;99.90;;;;;;5043093;28;20202;-77
2022/11/28 03:12:02;;;;;;;3.70;3.50;;;2.90;99.90;;;;;;5049276;28;20226;-76
2022/11/28 03:14:42;;;;;;;4.15;3.85;;;2.90;99.90;;;;;;5045642;28;20269;-81
2022/11/28 03:17:18;;;;;;;4.20;3.90;;;2.90;99.90;;;;;;5048040;28;20223;-77
2022/11/28 03:19:54;;;;;;;3.50;3.30;;;2.90;99.90;;;;;;5046953;28;20206;-79
2022/11/28 03:22:30;;;;;;;3.80;3.60;;;2.90;99.90;;;;;;5045199;28;20221;-80
2022/11/28 03:25:06;;;;;;;3.70;3.50;;;2.80;99.90;;;;;;5046418;28;20199;-75
2022/11/28 03:27:38;;;;;;;3.88;3.58;;;2.80;99.90;;;;;;5046989;28;20715;-77
2022/11/28 03:30:14;;;;;;;4.82;4.43;;;2.80;99.90;;;;;;5044215;28;20210;-77
2022/11/28 03:32:43;;;;;;;4.30;4.00;;;2.80;99.90;;;;;;5044499;28;20214;-79
2022/11/28 03:35:17;;;;;;;3.85;3.55;;;2.80;99.90;;;;;;5042682;28;20207;-76
2022/11/28 03:37:49;;;;;;;3.88;3.65;;;2.80;99.90;;;;;;5047830;28;20226;-79
2022/11/28 03:40:22;;;;;;;3.80;3.60;;;2.80;99.90;;;;;;5047056;28;20206;-76
2022/11/28 03:42:56;;;;;;;3.83;3.63;;;2.80;99.90;;;;;;5048254;28;20221;-77
2022/11/28 03:45:26;;;;;;;3.85;3.65;;;2.90;99.90;;;;;;5048320;28;20195;-76
2022/11/28 03:47:58;;;;;;;4.28;3.97;;;2.90;99.90;;;;;;5050234;28;20242;-77
2022/11/28 03:50:32;;;;;;;4.30;3.90;;;3.00;99.90;;;;;;5046981;28;20574;-79
2022/11/28 03:53:04;;;;;;;4.38;4.07;;;3.00;99.90;;;;;;5048175;28;20215;-74
2022/11/28 03:55:36;;;;;;;4.53;4.22;;;2.90;99.90;;;;;;5046282;28;20207;-77
2022/11/28 03:58:12;;;;;;;4.30;4.00;;;2.90;99.90;;;;;;5047109;28;20222;-77
2022/11/28 04:00:51;;;;;;;3.80;3.50;;;2.90;99.90;;;;;;5044106;28;20218;-74
2022/11/28 04:03:26;;;;;;;3.53;3.30;;;2.90;99.90;;;;;;5026758;28;20192;-74
2022/11/28 04:06:02;;;;;;;4.18;3.38;;;2.90;99.90;;;;;;5006652;28;20215;-79
2022/11/28 04:08:34;;;;;;;4.22;3.92;;;2.90;99.90;;;;;;5025919;28;20203;-76
2022/11/28 04:11:09;;;;;;;3.88;3.67;;;2.90;99.90;;;;;;5006006;28;20221;-78
2022/11/28 04:13:41;;;;;;;4.13;3.92;;;3.00;99.90;;;;;;5025958;28;20217;-78
2022/11/28 04:16:14;;;;;;;3.95;3.65;;;3.00;99.90;;;;;;5022882;28;20219;-76
2022/11/28 04:18:50;;;;;;;3.90;3.55;;;3.00;99.90;;;;;;5009589;28;20192;-75
2022/11/28 04:21:24;;;;;;;3.60;3.40;;;3.00;99.90;;;;;;5026211;28;20226;-77
2022/11/28 04:23:55;;;;;;;3.42;3.22;;;3.00;99.90;;;;;;5025664;28;20203;-76
2022/11/28 04:26:28;;;;;;;3.88;3.67;;;3.10;99.90;;;;;;5028304;28;20294;-77
2022/11/28 04:28:57;;;;;;;4.45;4.05;;;3.10;99.90;;;;;;5025485;28;20212;-77
2022/11/28 04:31:26;;;;;;;4.00;3.75;;;3.10;99.90;;;;;;5022881;28;20223;-76
2022/11/28 04:33:58;;;;;;;3.53;3.33;;;3.00;99.90;;;;;;5029083;28;20584;-74
2022/11/28 04:36:29;;;;;;;3.80;3.60;;;3.00;99.90;;;;;;5027203;28;20226;-76
2022/11/28 04:38:58;;;;;;;4.00;3.70;;;3.00;99.90;;;;;;5028032;28;20192;-80
2022/11/28 04:41:34;;;;;;;4.00;3.80;;;3.10;99.90;;;;;;5010862;28;20219;-77
2022/11/28 04:44:08;;;;;;;3.38;3.13;;;3.10;99.90;;;;;;5028891;28;20198;-76
2022/11/28 04:46:41;;;;;;;3.60;3.30;;;3.00;99.90;;;;;;5007765;28;20230;-74
2022/11/28 04:49:08;;;;;;;3.85;3.65;;;3.00;99.90;;;;;;5012120;28;20208;-75
2022/11/28 04:51:45;;;;;;;4.10;3.90;;;3.00;99.90;;;;;;5024555;28;20234;-77
2022/11/28 04:54:19;;;;;;;4.03;3.83;;;3.10;99.90;;;;;;5009849;28;20199;-74
2022/11/28 04:56:52;;;;;;;4.88;4.47;;;3.00;99.90;;;;;;5031974;28;20643;-75
2022/11/28 04:59:22;;;;;;;4.55;4.22;;;3.10;99.90;;;;;;5023452;28;20287;-76
2022/11/28 05:01:50;;;;;;;8.23;7.50;;;3.10;99.90;;;;;;5032527;28;20619;-74
2022/11/28 05:04:18;;;;;;;7.78;7.07;;;3.20;99.90;;;;;;5015291;28;20192;-75
2022/11/28 05:06:47;;;;;;;7.93;7.13;;;3.20;99.90;;;;;;5031194;28;20775;-77
2022/11/28 05:09:14;;;;;;;6.47;5.90;;;3.20;99.90;;;;;;5029682;28;20200;-78
2022/11/28 05:11:42;;;;;;;6.30;5.70;;;3.20;99.90;;;;;;5037919;28;20218;-75
2022/11/28 05:14:10;;;;;;;5.88;5.38;;;3.20;99.90;;;;;;5030019;28;20195;-75
2022/11/28 05:16:38;;;;;;;5.15;4.75;;;3.20;99.90;;;;;;5032366;28;20696;-76
2022/11/28 05:19:05;;;;;;;5.07;4.78;;;3.20;99.90;;;;;;5047524;28;20900;-75
2022/11/28 05:21:32;;;;;;;4.30;4.00;;;3.20;99.90;;;;;;5039030;28;20227;-76
2022/11/28 05:24:01;;;;;;;5.28;4.88;;;3.20;99.90;;;;;;5033935;28;20211;-76
2022/11/28 05:26:31;;;;;;;4.22;3.92;;;3.20;99.90;;;;;;5012794;28;20228;-76
2022/11/28 05:28:58;;;;;;;4.47;4.18;;;3.10;99.90;;;;;;5032538;28;20566;-76
2022/11/28 05:31:26;;;;;;;4.18;3.90;;;3.20;99.90;;;;;;5030481;28;20219;-75
2022/11/28 05:33:55;;;;;;;4.40;4.10;;;3.20;99.90;;;;;;5030773;28;20218;-77
2022/11/28 05:36:23;;;;;;;4.43;4.13;;;3.20;99.90;;;;;;5011110;28;20219;-75
2022/11/28 05:38:51;;;;;;;3.80;3.60;;;3.10;99.90;;;;;;5026837;28;20215;-80
2022/11/28 05:41:32;;;;;;;4.57;4.28;;;3.00;99.90;;;;;;5031460;28;20570;-76
2022/11/28 05:44:00;;;;;;;3.85;3.65;;;2.90;99.90;;;;;;5026297;28;20196;-76
2022/11/28 05:46:29;;;;;;;4.70;4.40;;;2.90;99.90;;;;;;5030183;28;20223;-78
2022/11/28 05:48:56;;;;;;;4.43;4.03;;;2.90;99.90;;;;;;5026532;28;20200;-79
2022/11/28 05:51:24;;;;;;;4.65;4.32;;;2.90;99.90;;;;;;5029874;28;20223;-78
2022/11/28 05:53:51;;;;;;;4.50;4.15;;;2.90;99.90;;;;;;5031298;28;20230;-78
2022/11/28 05:56:24;;;;;;;3.83;3.60;;;3.00;99.90;;;;;;5031216;28;20359;-80
2022/11/28 05:58:53;;;;;;;4.22;3.92;;;3.10;99.90;;;;;;5033995;28;20200;-73
2022/11/28 06:01:22;;;;;;;4.07;3.78;;;3.10;99.90;;;;;;5031508;28;20319;-75
2022/11/28 06:03:50;;;;;;;3.22;3.03;;;3.10;99.90;;;;;;5028388;28;20210;-75
2022/11/28 06:06:20;;;;;;;4.05;3.85;;;3.20;99.90;;;;;;5011232;28;20226;-75
2022/11/28 06:08:50;;;;;;;4.78;4.47;;;3.20;99.90;;;;;;5031722;28;20277;-74
2022/11/28 06:11:18;;;;;;;4.22;3.92;;;3.20;99.90;;;;;;5029861;28;20277;-76
2022/11/28 06:13:48;;;;;;;3.75;3.55;;;3.20;99.90;;;;;;5028493;28;20250;-75
2022/11/28 06:16:17;;;;;;;5.10;4.70;;;3.20;99.90;;;;;;5029224;28;20221;-73
2022/11/28 06:18:45;;;;;;;4.53;4.18;;;3.20;99.90;;;;;;5029357;28;20235;-76
2022/11/28 06:21:14;;;;;;;5.22;4.72;;;3.20;99.90;;;;;;5031129;28;20234;-77
2022/11/28 06:23:42;;;;;;;5.03;4.60;;;3.10;99.90;;;;;;5034199;28;20649;-74
2022/11/28 06:26:11;;;;;;;4.97;4.57;;;3.10;99.90;;;;;;5034406;28;20223;-75
2022/11/28 06:28:39;;;;;;;4.85;4.55;;;3.10;99.90;;;;;;5028919;28;20195;-77
2022/11/28 06:31:12;;;;;;;5.53;5.13;;;3.10;99.90;;;;;;5026641;28;20671;-74
2022/11/28 06:33:39;;;;;;;5.90;5.32;;;3.10;99.90;;;;;;5013821;28;20204;-74
2022/11/28 06:36:08;;;;;;;4.63;4.22;;;3.10;99.90;;;;;;5029232;28;20223;-74
2022/11/28 06:38:36;;;;;;;5.35;4.88;;;3.10;99.90;;;;;;4996364;28;20755;-75
2022/11/28 06:41:06;;;;;;;5.22;4.10;;;3.20;99.90;;;;;;5014047;28;20235;-77
2022/11/28 06:43:35;;;;;;;5.43;5.03;;;3.20;99.90;;;;;;5036164;28;20204;-78
2022/11/28 06:46:02;;;;;;;5.43;4.93;;;3.20;99.90;;;;;;5032940;28;20269;-79
2022/11/28 06:48:31;;;;;;;6.18;5.57;;;3.20;99.90;;;;;;5027829;28;20241;-77
2022/11/28 06:51:03;;;;;;;5.30;4.80;;;3.20;99.90;;;;;;5018356;28;20227;-80
2022/11/28 06:53:31;;;;;;;5.70;5.25;;;3.20;99.90;;;;;;5028956;28;20265;-75
2022/11/28 06:55:58;;;;;;;5.15;4.75;;;3.10;99.90;;;;;;5027468;28;20211;-80
2022/11/28 06:58:26;;;;;;;5.07;4.63;;;3.10;99.90;;;;;;5028585;28;20274;-74
2022/11/28 07:00:53;;;;;;;5.88;5.47;;;3.00;99.90;;;;;;5013958;28;20227;-76
2022/11/28 07:03:20;;;;;;;5.80;5.30;;;2.90;99.90;;;;;;5025882;28;20204;-74
2022/11/28 07:05:50;;;;;;;5.20;4.90;;;2.80;99.90;;;;;;5026289;28;20228;-77
2022/11/28 07:08:17;;;;;;;6.13;5.07;;;2.80;99.90;;;;;;5026155;28;20207;-76
2022/11/28 07:10:44;;;;;;;5.45;5.05;;;2.70;99.90;;;;;;5026342;28;20223;-76
2022/11/28 07:13:12;;;;;;;5.53;5.10;;;2.60;99.90;;;;;;5009156;28;20235;-74
2022/11/28 07:15:39;;;;;;;5.28;4.88;;;2.60;99.90;;;;;;4994945;28;20191;-78
2022/11/28 07:18:06;;;;;;;5.63;5.13;;;2.70;99.90;;;;;;5032767;28;20227;-78
2022/11/28 07:20:34;;;;;;;6.65;6.10;;;2.70;99.90;;;;;;5030547;28;20302;-74
2022/11/28 07:23:03;;;;;;;6.13;5.57;;;2.80;99.90;;;;;;5032819;28;20661;-75
2022/11/28 07:25:31;;;;;;;6.22;5.53;;;2.80;99.90;;;;;;5031122;28;20568;-74
2022/11/28 07:27:59;;;;;;;5.97;5.47;;;2.90;99.90;;;;;;5030474;28;20214;-75
2022/11/28 07:30:27;;;;;;;6.03;5.53;;;3.00;99.90;;;;;;5032722;28;20596;-77
2022/11/28 07:32:54;;;;;;;5.40;4.90;;;3.10;99.90;;;;;;5042952;28;20673;-76
2022/11/28 07:35:23;;;;;;;5.90;5.40;;;3.20;99.90;;;;;;5044080;28;20198;-73
2022/11/28 07:37:50;;;;;;;4.78;4.45;;;3.20;99.90;;;;;;5025159;28;20223;-77
2022/11/28 07:40:21;;;;;;;5.13;4.72;;;3.20;99.90;;;;;;5024315;28;20200;-75
2022/11/28 07:42:49;;;;;;;4.88;4.57;;;3.30;99.90;;;;;;5028016;28;20230;-76
2022/11/28 07:45:16;;;;;;;5.32;4.93;;;3.30;99.90;;;;;;5028869;28;20281;-78
2022/11/28 07:47:43;;;;;;;5.03;4.63;;;3.40;99.90;;;;;;5029644;28;20227;-74
2022/11/28 07:50:11;;;;;;;6.40;5.55;;;3.40;99.90;;;;;;5025641;28;20273;-79
2022/11/28 07:52:38;;;;;;;5.32;4.90;;;3.40;99.90;;;;;;5039885;28;20216;-76
2022/11/28 07:55:07;;;;;;;8.15;5.93;;;3.40;99.90;;;;;;5044396;28;20280;-76
2022/11/28 07:57:35;;;;;;;5.95;5.38;;;3.20;99.90;;;;;;5028730;28;20711;-79
2022/11/28 08:00:03;;;;;;;6.00;5.43;;;3.00;99.90;;;;;;5027513;28;20207;-77
2022/11/28 08:02:31;;;;;;;5.10;4.70;;;2.90;99.90;;;;;;5040949;28;20226;-74
2022/11/28 08:04:59;;;;;;;5.30;4.80;;;3.00;99.90;;;;;;5044905;28;20203;-77
2022/11/28 08:07:27;;;;;;;5.28;4.88;;;3.10;99.90;;;;;;5026461;28;20235;-75
2022/11/28 08:09:54;;;;;;;5.75;4.82;;;3.10;99.90;;;;;;5045292;28;20198;-76
2022/11/28 08:12:21;;;;;;;4.53;4.22;;;3.20;99.90;;;;;;5045193;28;20229;-75
2022/11/28 08:14:50;;;;;;;4.72;4.43;;;3.30;99.90;;;;;;5048899;28;20202;-78
2022/11/28 08:17:17;;;;;;;4.20;3.90;;;3.50;99.90;;;;;;5042797;28;20222;-76
2022/11/28 08:19:44;;;;;;;4.32;4.03;;;3.60;99.90;;;;;;5043668;28;20199;-75
2022/11/28 08:22:12;;;;;;;4.32;4.03;;;3.70;99.90;;;;;;5046146;28;20223;-76
2022/11/28 08:24:39;;;;;;;4.32;4.03;;;3.70;99.90;;;;;;5045603;28;20548;-75
2022/11/28 08:27:07;;;;;;;4.30;4.10;;;3.70;99.90;;;;;;5047233;28;20223;-76
2022/11/28 08:29:34;;;;;;;5.20;4.75;;;3.70;99.90;;;;;;5044126;28;20664;-75
2022/11/28 08:32:03;;;;;;;4.70;4.32;;;3.80;99.90;;;;;;5053323;28;20731;-74
2022/11/28 08:34:31;;;;;;;5.20;4.90;;;3.70;99.90;;;;;;5046274;28;21562;-77
2022/11/28 08:36:58;;;;;;;4.95;4.55;;;3.70;99.90;;;;;;5046256;28;20214;-75
2022/11/28 08:39:26;;;;;;;5.13;4.70;;;3.70;99.90;;;;;;5051467;28;20217;-76
2022/11/28 08:41:55;;;;;;;5.25;4.85;;;3.70;99.90;;;;;;5038273;28;20284;-80
2022/11/28 08:44:23;;;;;;;4.60;4.25;;;3.70;99.90;;;;;;5028296;28;20203;-77
2022/11/28 08:46:50;;;;;;;5.70;5.30;;;3.80;99.90;;;;;;5013091;28;20219;-77
2022/11/28 08:49:19;;;;;;;6.72;5.07;;;3.90;99.90;;;;;;5029088;28;20195;-78
2022/11/28 08:51:47;;;;;;;5.38;4.90;;;4.00;99.90;;;;;;5030209;28;20748;-76
2022/11/28 08:54:16;;;;;;;5.82;5.35;;;4.00;99.90;;;;;;5031342;28;20195;-79
2022/11/28 08:56:44;;;;;;;6.30;5.70;;;4.10;99.90;;;;;;5031412;28;20364;-75
2022/11/28 08:59:11;;;;;;;6.97;6.38;;;4.10;99.90;;;;;;5015569;28;20223;-76
2022/11/28 09:01:39;;;;;;;8.70;6.70;;;4.10;99.90;;;;;;5029235;28;20219;-80
2022/11/28 09:04:06;;;;;;;7.70;7.10;;;4.10;99.90;;;;;;5028840;28;20265;-78
2022/11/28 09:06:38;;;;;;;7.20;6.60;;;4.20;99.90;;;;;;5013184;28;20216;-75
2022/11/28 09:09:05;;;;;;;6.82;6.22;;;4.20;99.90;;;;;;5030460;28;20204;-77
2022/11/28 09:11:33;;;;;;;6.88;6.22;;;4.10;99.90;;;;;;5030404;28;20326;-74
2022/11/28 09:14:01;;;;;;;6.82;6.15;;;4.10;99.90;;;;;;5014030;28;20284;-81
2022/11/28 09:16:30;;;;;;;5.82;5.32;;;4.10;99.90;;;;;;5028718;28;20270;-80
2022/11/28 09:18:58;;;;;;;7.07;6.47;;;4.20;99.90;;;;;;5028592;28;20273;-76
2022/11/28 09:21:26;;;;;;;5.70;5.20;;;4.30;99.90;;;;;;5033587;28;20219;-77
2022/11/28 09:23:56;;;;;;;5.57;5.05;;;4.30;99.90;;;;;;5051164;28;20199;-77
2022/11/28 09:26:25;;;;;;;4.68;4.25;;;4.30;99.90;;;;;;5049452;28;20223;-74
2022/11/28 09:28:53;;;;;;;5.63;4.72;;;4.30;99.90;;;;;;5049727;28;20207;-79
2022/11/28 09:31:21;;;;;;;6.85;6.25;;;4.20;99.90;;;;;;5041611;28;20227;-78
2022/11/28 09:33:49;;;;;;;6.07;5.55;;;4.10;99.90;;;;;;5030256;28;20202;-79
2022/11/28 09:36:19;;;;;;;5.50;5.10;;;4.00;99.90;;;;;;5031269;28;20637;-75
2022/11/28 09:38:47;;;;;;;5.45;4.95;;;4.00;99.90;;;;;;5013694;28;20284;-74
2022/11/28 09:41:44;;;;;;;5.15;4.75;;;4.10;99.90;;;;;;5027977;28;20791;-74
2022/11/28 09:44:25;;;;;;;5.05;4.65;;;4.20;99.90;;;;;;5036116;28;20215;-78
2022/11/28 09:46:57;;;;;;;4.65;4.25;;;4.20;99.90;;;;;;5028254;28;20316;-74
2022/11/28 09:49:38;;;;;;;5.72;5.22;;;4.30;99.90;;;;;;5028491;28;20195;-75
2022/11/28 09:52:16;;;;;;;6.32;5.72;;;4.40;99.90;;;;;;5013997;28;20272;-78
2022/11/28 09:54:49;;;;;;;6.20;5.57;;;4.50;99.90;;;;;;5000051;28;20203;-77
2022/11/28 09:57:25;;;;;;;6.45;5.85;;;4.50;99.90;;;;;;5032371;28;20603;-76
2022/11/28 09:59:54;;;;;;;6.93;5.40;;;4.50;99.90;;;;;;5012331;28;20213;-77
2022/11/28 10:02:29;;;;;;;5.90;5.35;;;4.50;99.90;;;;;;5045575;28;20253;-76
2022/11/28 10:05:07;;;;;;;6.07;5.50;;;4.40;99.90;;;;;;5046503;28;20213;-78
2022/11/28 10:07:52;;;;;;;5.65;5.18;;;4.40;99.90;;;;;;5033654;28;20225;-77
2022/11/28 10:10:26;;;;;;;6.07;5.50;;;4.40;99.90;;;;;;5041676;28;20204;-75
2022/11/28 10:13:02;;;;;;;6.22;5.63;;;4.50;99.90;;;;;;5030707;28;20756;-77
2022/11/28 10:15:56;;;;;;;6.50;5.90;;;4.60;99.90;;;;;;5044936;28;20199;-76
2022/11/28 10:18:33;;;;;;;6.03;5.32;;;4.60;99.90;;;;;;5047776;28;20222;-75
2022/11/28 10:21:04;;;;;;;6.18;5.68;;;4.70;99.90;;;;;;5043266;28;20577;-76
2022/11/28 10:23:40;;;;;;;6.40;5.68;;;4.70;99.90;;;;;;5028174;28;20200;-74
2022/11/28 10:26:15;;;;;;;5.65;5.05;;;4.60;99.90;;;;;;5031058;28;20237;-79
2022/11/28 10:28:46;;;;;;;6.72;5.60;;;4.60;99.90;;;;;;5047208;28;20198;-78
2022/11/28 10:31:20;;;;;;;6.43;5.82;;;4.50;99.90;;;;;;5043747;28;20226;-76
2022/11/28 10:33:52;;;;;;;5.50;5.07;;;4.40;99.90;;;;;;5045604;28;20569;-81
2022/11/28 10:36:24;;;;;;;5.18;4.68;;;4.40;99.90;;;;;;5048184;28;20214;-76
2022/11/28 10:38:52;;;;;;;6.25;5.20;;;4.40;99.90;;;;;;5046633;28;20715;-78
2022/11/28 10:41:27;;;;;;;4.93;4.47;;;4.40;99.90;;;;;;5040490;28;20230;-83
2022/11/28 10:44:00;;;;;;;5.00;4.60;;;4.40;99.90;;;;;;5046051;28;20221;-80
2022/11/28 10:46:44;;;;;;;5.20;4.70;;;4.50;99.90;;;;;;5046144;28;20731;-79
2022/11/28 10:49:25;;;;;;;4.93;4.50;;;4.60;99.90;;;;;;5032216;28;20191;-74
2022/11/28 10:52:03;;;;;;;4.75;4.35;;;4.60;99.90;;;;;;5047340;28;20918;-76
2022/11/28 10:54:59;;;;;;;3.78;3.47;;;4.70;99.90;;;;;;5032446;28;20209;-82
2022/11/28 10:57:31;;;;;;;5.25;4.85;;;4.70;99.90;;;;;;5048848;28;20589;-75
2022/11/28 11:00:06;;;;;;;5.68;5.18;;;4.80;99.90;;;;;;5046224;28;20215;-77
2022/11/28 11:02:40;;;;;;;5.10;4.60;;;4.80;99.90;;;;;;5044086;28;20253;-76
2022/11/28 11:05:13;;;;;;;6.53;5.88;;;4.90;99.90;;;;;;5051633;28;20198;-76
2022/11/28 11:07:47;;;;;;;6.10;5.60;;;4.90;99.90;;;;;;5046600;28;20238;-78
2022/11/28 11:10:18;;;;;;;5.78;5.28;;;5.00;99.90;;;;;;5047494;28;20204;-74
2022/11/28 11:12:48;;;;;;;6.28;5.68;;;5.00;99.90;;;;;;5028335;28;20273;-77
2022/11/28 11:15:18;;;;;;;6.22;5.72;;;5.00;99.90;;;;;;5026822;28;20207;-77
2022/11/28 11:17:49;;;;;;;5.85;5.35;;;5.20;99.90;;;;;;5028202;28;20627;-78
2022/11/28 11:20:29;;;;;;;5.60;5.10;;;5.20;99.90;;;;;;5023831;28;20601;-77
2022/11/28 11:22:58;;;;;;;5.70;5.30;;;5.20;99.90;;;;;;5026707;28;20818;-77
2022/11/28 11:25:27;;;;;;;6.15;5.55;;;5.10;99.90;;;;;;5028594;28;20261;-79
2022/11/28 11:27:58;;;;;;;6.43;5.82;;;5.10;99.90;;;;;;5029549;28;20246;-75
2022/11/28 11:30:27;;;;;;;6.57;5.88;;;4.90;99.90;;;;;;5028447;28;20221;-79
2022/11/28 11:32:57;;;;;;;6.38;5.78;;;4.70;99.90;;;;;;5026681;28;20227;-78
2022/11/28 11:35:28;;;;;;;6.03;5.43;;;4.60;99.90;;;;;;5027278;28;20837;-73
2022/11/28 11:38:16;;;;;;;7.00;6.07;;;4.60;99.90;;;;;;5046719;28;20682;-77
2022/11/28 11:40:44;;;;;;;6.18;5.57;;;4.60;99.90;;;;;;5047344;28;20215;-78
2022/11/28 11:43:30;;;;;;;6.35;5.35;;;4.60;99.90;;;;;;5045221;28;20203;-80
2022/11/28 11:46:12;;;;;;;5.82;5.30;;;4.60;99.90;;;;;;5046439;28;20218;-77
2022/11/28 11:48:43;;;;;;;6.15;5.57;;;4.60;99.90;;;;;;5043007;28;20206;-76
2022/11/28 11:51:23;;;;;;;6.05;5.20;;;4.60;99.90;;;;;;5042901;28;20818;-76
2022/11/28 11:54:04;;;;;;;6.97;5.47;;;4.60;99.90;;;;;;5045281;28;20560;-75
2022/11/28 11:56:36;;;;;;;6.18;5.60;;;4.60;99.90;;;;;;5043920;28;20219;-77
2022/11/28 11:59:11;;;;;;;5.78;5.22;;;4.60;99.90;;;;;;5045190;28;20273;-78
2022/11/28 12:01:40;;;;;;;9.95;5.20;;;4.60;99.90;;;;;;5045753;28;20218;-77
2022/11/28 12:04:19;;;;;;;6.90;5.68;;;4.60;99.90;;;;;;5046473;28;20210;-76
2022/11/28 12:06:49;;;;;;;6.00;5.50;;;4.70;99.90;;;;;;5046208;28;20215;-75
2022/11/28 12:09:25;;;;;;;5.90;5.40;;;4.70;99.90;;;;;;5042306;28;20195;-75
2022/11/28 12:11:57;;;;;;;5.88;5.38;;;4.80;99.90;;;;;;5044515;28;20218;-73
2022/11/28 12:14:30;;;;;;;6.95;5.55;;;4.90;99.90;;;;;;5042193;28;20203;-76
2022/11/28 12:17:12;;;;;;;6.75;6.15;;;4.90;99.90;;;;;;5044771;28;20569;-76
2022/11/28 12:19:51;;;;;;;5.82;5.15;;;4.90;99.90;;;;;;5043652;28;20210;-76
2022/11/28 12:22:27;;;;;;;6.15;5.55;;;4.90;99.90;;;;;;5043061;28;20223;-77
2022/11/28 12:25:08;;;;;;;5.70;5.20;;;5.00;99.90;;;;;;5049304;28;20205;-75
2022/11/28 12:28:01;;;;;;;6.97;6.28;;;5.00;99.90;;;;;;5047198;28;20218;-79
2022/11/28 12:30:42;;;;;;;6.00;5.50;;;5.00;99.90;;;;;;5045356;28;20215;-78
2022/11/28 12:33:26;;;;;;;7.22;5.80;;;5.00;99.90;;;;;;5043889;28;20226;-81
2022/11/28 12:36:07;;;;;;;5.40;5.00;;;4.90;99.90;;;;;;5044528;28;20219;-78
2022/11/28 12:38:45;;;;;;;5.03;4.63;;;4.90;99.90;;;;;;5043910;28;20675;-77
2022/11/28 12:41:30;;;;;;;4.75;4.35;;;5.00;99.90;;;;;;5044441;28;20222;-82
2022/11/28 12:44:06;;;;;;;4.65;4.25;;;5.10;99.90;;;;;;5044504;28;20195;-77
2022/11/28 12:46:41;;;;;;;4.85;4.45;;;5.10;99.90;;;;;;5042611;28;20214;-79
2022/11/28 12:49:18;;;;;;;4.30;3.90;;;5.20;99.90;;;;;;5046660;28;20202;-77
2022/11/28 12:52:09;;;;;;;6.60;6.00;;;5.30;99.90;;;;;;5044889;28;20218;-79
2022/11/28 12:54:54;;;;;;;7.25;6.63;;;5.20;99.90;;;;;;5043292;28;20297;-81
2022/11/28 12:57:33;;;;;;;8.38;7.43;;;5.10;99.90;;;;;;5045090;28;20218;-78
2022/11/28 13:00:05;;;;;;;8.95;7.13;;;5.10;99.90;;;;;;5046095;28;20229;-76
2022/11/28 13:02:44;;;;;;;7.85;7.05;;;5.10;99.90;;;;;;5045123;28;20766;-76
2022/11/28 13:05:24;;;;;;;8.20;5.95;;;5.10;99.90;;;;;;5046223;28;20198;-77
2022/11/28 13:08:25;;;;;;;7.80;7.05;;;5.10;99.90;;;;;;5038969;28;20214;-76
2022/11/28 13:10:58;;;;;;;6.88;6.25;;;5.20;99.90;;;;;;5040579;28;20830;-75
2022/11/28 13:13:32;;;;;;;10.45;6.25;;;5.20;99.90;;;;;;5040925;28;20199;-76
2022/11/28 13:16:05;;;;;;;5.93;5.43;;;5.30;99.90;;;;;;5038711;28;20590;-80
2022/11/28 13:18:40;;;;;;;5.50;5.00;;;5.30;99.90;;;;;;5047110;28;20199;-74
2022/11/28 13:21:18;;;;;;;5.60;5.10;;;5.20;99.90;;;;;;5048857;28;20218;-73
2022/11/28 13:23:56;;;;;;;5.15;4.70;;;5.20;99.90;;;;;;5044303;28;20260;-76